Time;durP1;ratioP1;P1;durP2;ratioP2;P2;SDS_P1;SDS_P2;PMS_P1;PMS_P2;Temp;Humidity;BMP_temperature;BMP_pressure;BME280_temperature;BME280_humidity;BME280_pressure;Samples;Min_cycle;Max_cycle;Signal;HPM_P1;HPM_P2
2022/10/16 00:00:15;;;;;;;5.75;1.92;;;;;;;15.91;86.49;97988.94;4962861;28;20481;-88
2022/10/16 00:03:08;;;;;;;6.95;2.25;;;;;;;15.88;87.08;97992.03;4960500;28;20039;-87
2022/10/16 00:05:42;;;;;;;4.50;1.88;;;;;;;15.97;87.06;97990.63;4953700;28;20031;-88
2022/10/16 00:08:11;;;;;;;3.45;2.17;;;;;;;16.01;87.12;98011.09;4958248;28;20038;-88
2022/10/16 00:10:40;;;;;;;2.45;1.92;;;;;;;15.83;87.00;97994.56;4969587;28;20479;-89
2022/10/16 00:13:13;;;;;;;2.90;2.08;;;;;;;15.85;87.30;98003.09;4958006;28;20154;-88
2022/10/16 00:15:46;;;;;;;6.72;2.10;;;;;;;15.78;87.75;97990.81;4970760;28;20089;-88
2022/10/16 00:18:14;;;;;;;8.25;2.45;;;;;;;15.82;87.19;97995.63;4966097;28;20046;-88
2022/10/16 00:20:44;;;;;;;2.08;1.88;;;;;;;15.82;87.16;97998.25;4957298;28;20036;-88
2022/10/16 00:23:16;;;;;;;3.35;1.90;;;;;;;15.85;87.37;98008.38;4968109;28;20039;-88
2022/10/16 00:25:51;;;;;;;4.32;2.08;;;;;;;15.84;87.13;98004.13;4969442;28;20039;-87
2022/10/16 00:28:28;;;;;;;2.20;1.60;;;;;;;15.84;87.31;97996.19;4965324;28;20031;-88
2022/10/16 00:30:54;;;;;;;3.25;1.73;;;;;;;15.81;87.20;97994.00;4969710;28;20113;-87
2022/10/16 00:33:29;;;;;;;3.92;2.00;;;;;;;15.79;87.52;97999.53;4954307;28;20047;-89
2022/10/16 00:36:01;;;;;;;2.33;1.80;;;;;;;15.89;87.54;98009.50;4966367;28;20042;-87
2022/10/16 00:38:42;;;;;;;;;;;;;;;;;;;;;
2022/10/16 00:41:50;;;;;;;3.25;1.90;;;;;;;15.77;87.28;97991.03;4968841;28;20427;-90
2022/10/16 00:45:05;;;;;;;;;;;;;;;;;;;;;
2022/10/16 00:47:48;;;;;;;;;;;;;;;;;;;;;
2022/10/16 00:50:29;;;;;;;4.15;1.92;;;;;;;15.74;87.55;97980.94;4970977;28;20031;-87
2022/10/16 00:53:12;;;;;;;4.88;1.90;;;;;;;15.69;87.87;98000.13;4963737;28;20044;-88
2022/10/16 00:55:46;;;;;;;3.72;1.70;;;;;;;15.73;88.20;97998.66;4968578;28;20035;-88
2022/10/16 00:58:19;;;;;;;3.03;1.83;;;;;;;15.74;88.22;98012.66;4963471;28;20448;-89
2022/10/16 01:00:45;;;;;;;2.65;2.35;;;;;;;15.69;88.03;98008.06;4974331;28;20058;-88
2022/10/16 01:03:28;;;;;;;3.58;2.22;;;;;;;15.88;88.06;98042.28;4955191;28;20054;-89
2022/10/16 01:06:14;;;;;;;2.83;2.10;;;;;;;15.83;88.08;98026.31;4961704;28;20059;-87
2022/10/16 01:09:16;;;;;;;3.05;2.00;;;;;;;15.89;87.92;98020.88;4969203;28;20042;-88
2022/10/16 01:11:52;;;;;;;7.57;2.80;;;;;;;15.91;87.93;98028.59;4974190;28;20117;-89
2022/10/16 01:14:28;;;;;;;4.13;2.20;;;;;;;15.69;87.73;98000.13;4970146;28;20487;-87
2022/10/16 01:17:35;;;;;;;3.75;2.10;;;;;;;15.91;87.75;98015.38;4986039;28;20030;-88
2022/10/16 01:20:33;;;;;;;2.53;1.80;;;;;;;15.73;87.86;98009.22;4963557;28;20070;-87
2022/10/16 01:23:11;;;;;;;3.10;2.05;;;;;;;15.78;87.64;98009.31;4971724;28;20035;-87
2022/10/16 01:26:24;;;;;;;3.50;2.22;;;;;;;15.92;88.01;98028.34;4956020;28;20076;-87
2022/10/16 01:29:15;;;;;;;;;;;;;;;;;;;;;
2022/10/16 01:32:03;;;;;;;3.40;2.00;;;;;;;15.79;88.26;98026.00;4971494;28;20508;-90
2022/10/16 01:34:51;;;;;;;;;;;;;;;;;;;;;
2022/10/16 01:37:59;;;;;;;;;;;;;;;;;;;;;
2022/10/16 01:40:45;;;;;;;2.00;1.80;;;;;;;15.66;88.50;98019.13;4960871;28;20055;-89
2022/10/16 01:43:20;;;;;;;6.00;2.17;;;;;;;15.65;88.89;98020.16;4957858;28;20070;-88
2022/10/16 01:45:49;;;;;;;4.30;2.30;;;;;;;15.63;88.97;98038.09;4972538;28;20086;-88
2022/10/16 01:48:23;;;;;;;2.35;2.10;;;;;;;15.57;88.83;98027.63;4956812;28;20599;-87
2022/10/16 01:51:05;;;;;;;4.25;2.60;;;;;;;15.71;88.85;98044.84;4971415;28;20035;-89
2022/10/16 01:53:33;;;;;;;2.58;2.10;;;;;;;15.67;88.79;98044.53;4961623;28;20041;-88
2022/10/16 01:56:16;;;;;;;;;;;;;;;;;;;;;
2022/10/16 01:58:56;;;;;;;3.92;2.40;;;;;;;15.71;89.03;98058.91;4968219;28;20097;-87
2022/10/16 02:01:36;;;;;;;5.82;2.40;;;;;;;15.73;88.42;98045.44;4972277;28;20050;-89
2022/10/16 02:04:15;;;;;;;4.53;2.30;;;;;;;15.67;88.45;98047.16;4973972;28;20568;-89
2022/10/16 02:06:43;;;;;;;3.22;2.58;;;;;;;15.72;88.54;98044.63;4973082;28;20035;-88
2022/10/16 02:09:23;;;;;;;5.00;2.40;;;;;;;15.67;88.77;98039.25;4972114;28;20034;-89
2022/10/16 02:12:06;;;;;;;;;;;;;;;;;;;;;
2022/10/16 02:14:43;;;;;;;4.40;2.60;;;;;;;15.78;88.60;98059.56;4971506;28;20049;-89
2022/10/16 02:17:28;;;;;;;;;;;;;;;;;;;;;
2022/10/16 02:20:00;;;;;;;8.48;2.33;;;;;;;15.93;88.45;98048.47;4972058;28;20054;-87
2022/10/16 02:22:43;;;;;;;3.45;2.30;;;;;;;15.97;88.01;98054.09;4976095;28;20094;-88
2022/10/16 02:25:39;;;;;;;;;;;;;;;;;;;;;
2022/10/16 02:28:31;;;;;;;3.15;2.20;;;;;;;15.66;88.78;98042.91;4969984;28;20027;-89
2022/10/16 02:31:49;;;;;;;3.42;2.70;;;;;;;15.73;88.66;98040.16;4968376;28;20050;-88
2022/10/16 02:34:20;;;;;;;2.35;2.10;;;;;;;15.76;88.63;98043.09;4963772;28;20039;-89
2022/10/16 02:36:55;;;;;;;3.55;2.30;;;;;;;15.68;88.93;98040.84;4967179;28;20089;-88
2022/10/16 02:39:22;;;;;;;4.20;2.33;;;;;;;15.67;89.11;98033.16;4968420;28;20081;-87
2022/10/16 02:41:50;;;;;;;2.95;2.50;;;;;;;15.64;89.17;98028.31;4960452;28;20031;-88
2022/10/16 02:44:23;;;;;;;3.72;2.33;;;;;;;15.72;89.38;98055.22;4962872;28;20930;-87
2022/10/16 02:46:53;;;;;;;3.20;2.20;;;;;;;15.70;89.03;98048.53;4953333;28;20031;-89
2022/10/16 02:49:19;;;;;;;2.47;2.28;;;;;;;15.63;88.94;98045.22;4982931;28;20069;-87
2022/10/16 02:52:10;;;;;;;;;;;;;;;;;;;;;
2022/10/16 02:54:41;;;;;;;2.97;2.30;;;;;;;15.71;89.00;98043.03;4972017;28;20039;-88
2022/10/16 02:57:12;;;;;;;3.08;2.38;;;;;;;15.62;89.26;98028.56;4971240;28;20030;-89
2022/10/16 02:59:52;;;;;;;;;;;;;;;;;;;;;
2022/10/16 03:02:29;;;;;;;2.63;2.30;;;;;;;15.70;89.26;98051.97;4970518;28;20504;-89
2022/10/16 03:04:57;;;;;;;3.13;2.60;;;;;;;15.66;89.58;98042.91;4963916;28;20035;-89
2022/10/16 03:07:22;;;;;;;3.50;2.17;;;;;;;15.69;89.51;98047.72;4964388;28;20047;-87
2022/10/16 03:10:04;;;;;;;;;;;;;;;;;;;;;
2022/10/16 03:12:30;;;;;;;2.30;1.95;;;;;;;15.59;89.81;98046.69;4969555;28;20042;-89
2022/10/16 03:15:01;;;;;;;6.80;2.70;;;;;;;15.67;89.91;98057.75;4964840;28;20121;-91
2022/10/16 03:17:29;;;;;;;4.60;2.53;;;;;;;15.60;90.17;98040.38;4967987;28;20489;-87
2022/10/16 03:19:57;;;;;;;5.07;2.65;;;;;;;15.55;89.96;98046.34;4991240;28;20023;-88
2022/10/16 03:22:27;;;;;;;2.70;2.42;;;;;;;15.53;89.42;98043.13;4969311;28;20039;-88
2022/10/16 03:25:13;;;;;;;3.53;2.03;;;;;;;15.52;89.71;98038.88;4955253;28;20069;-87
2022/10/16 03:27:41;;;;;;;3.78;2.30;;;;;;;15.67;89.61;98068.31;4953925;28;20027;-87
2022/10/16 03:30:13;;;;;;;3.40;2.10;;;;;;;15.51;89.82;98046.00;4965748;28;20043;-90
2022/10/16 03:32:53;;;;;;;;;;;;;;;;;;;;;
2022/10/16 03:35:27;;;;;;;2.45;2.25;;;;;;;15.58;89.60;98058.28;4961037;28;20035;-88
2022/10/16 03:38:07;;;;;;;;;;;;;;;;;;;;;
2022/10/16 03:40:45;;;;;;;;;;;;;;;;;;;;;
2022/10/16 03:43:16;;;;;;;2.88;2.30;;;;;;;15.69;89.40;98068.09;4997118;28;20496;-88
2022/10/16 03:45:42;;;;;;;4.32;2.30;;;;;;;15.60;89.94;98058.88;4970540;28;20038;-88
2022/10/16 03:48:08;;;;;;;6.15;2.25;;;;;;;15.59;89.93;98057.25;4971097;28;20031;-87
2022/10/16 03:50:51;;;;;;;;;;;;;;;;;;;;;
2022/10/16 03:53:21;;;;;;;2.88;2.35;;;;;;;15.53;90.27;98058.97;4986083;28;20022;-88
2022/10/16 03:56:00;;;;;;;5.25;2.20;;;;;;;15.56;90.18;98053.25;4969749;28;20070;-89
2022/10/16 03:58:25;;;;;;;2.30;2.10;;;;;;;15.50;90.49;98049.69;4970617;28;20062;-88
2022/10/16 04:00:53;;;;;;;2.65;2.45;;;;;;;15.55;90.71;98061.41;4969224;28;20031;-88
2022/10/16 04:03:26;;;;;;;3.10;2.03;;;;;;;15.47;90.70;98042.25;4967663;28;20027;-88
2022/10/16 04:05:55;;;;;;;3.50;2.28;;;;;;;15.49;90.51;98052.56;4971266;28;20042;-88
2022/10/16 04:08:33;;;;;;;;;;;;;;;;;;;;;
2022/10/16 04:11:07;;;;;;;4.60;2.05;;;;;;;15.52;90.69;98075.88;4966045;28;20038;-87
2022/10/16 04:13:39;;;;;;;4.50;2.20;;;;;;;15.65;90.66;98098.66;4967343;28;20034;-89
2022/10/16 04:16:44;;;;;;;2.22;2.00;;;;;;;15.64;90.58;98092.56;4952171;28;20039;-88
2022/10/16 04:19:46;;;;;;;3.58;2.28;;;;;;;15.48;90.29;98080.03;4953280;28;20093;-88
2022/10/16 04:22:19;;;;;;;5.57;2.15;;;;;;;15.67;90.35;98110.63;4961066;28;20049;-88
2022/10/16 04:24:56;;;;;;;8.00;2.95;;;;;;;15.65;90.29;98107.41;4969223;28;20049;-89
2022/10/16 04:27:31;;;;;;;3.15;2.03;;;;;;;15.59;90.41;98099.53;4970718;28;20472;-89
2022/10/16 04:30:18;;;;;;;4.00;2.15;;;;;;;15.65;90.29;98109.22;4969909;28;20034;-87
2022/10/16 04:33:04;;;;;;;3.42;2.10;;;;;;;15.51;90.29;98083.00;4963785;28;20138;-88
2022/10/16 04:35:32;;;;;;;2.83;2.30;;;;;;;15.56;90.57;98079.69;4950498;28;20031;-88
2022/10/16 04:38:00;;;;;;;3.67;1.98;;;;;;;15.52;90.92;98083.81;4965269;28;20038;-89
2022/10/16 04:40:36;;;;;;;6.40;2.00;;;;;;;15.56;91.09;98086.81;4968974;28;20089;-89
2022/10/16 04:43:15;;;;;;;;;;;;;;;;;;;;;
2022/10/16 04:45:41;;;;;;;2.38;2.10;;;;;;;15.51;90.83;98087.50;4964144;28;20035;-88
2022/10/16 04:48:17;;;;;;;3.28;2.05;;;;;;;15.51;90.90;98085.66;4952921;28;20034;-88
2022/10/16 04:50:50;;;;;;;3.90;2.50;;;;;;;15.53;90.30;98080.13;4969816;28;20034;-89
2022/10/16 04:53:25;;;;;;;3.88;2.35;;;;;;;15.63;90.25;98096.25;4970240;28;20028;-89
2022/10/16 04:56:21;;;;;;;2.53;2.33;;;;;;;15.60;90.63;98078.19;4956812;28;20036;-88
2022/10/16 04:58:59;;;;;;;4.25;2.10;;;;;;;15.61;90.49;98098.31;4962700;28;20031;-89
2022/10/16 05:01:24;;;;;;;3.15;2.33;;;;;;;15.69;90.66;98111.19;4959816;28;20480;-88
2022/10/16 05:03:52;;;;;;;4.07;2.33;;;;;;;15.60;90.85;98086.13;4957354;28;20035;-87
2022/10/16 05:06:23;;;;;;;4.50;3.10;;;;;;;15.66;91.26;98095.81;4957251;28;20516;-87
2022/10/16 05:08:53;;;;;;;4.40;2.50;;;;;;;15.54;90.82;98076.47;4965634;28;20143;-88
2022/10/16 05:11:21;;;;;;;2.95;2.20;;;;;;;15.58;90.62;98087.38;4962032;28;20036;-87
2022/10/16 05:13:51;;;;;;;3.47;1.87;;;;;;;15.43;90.93;98085.22;4967510;28;20042;-86
2022/10/16 05:16:24;;;;;;;5.43;2.20;;;;;;;15.64;91.03;98111.06;4970202;28;20696;-84
2022/10/16 05:18:51;;;;;;;2.42;2.08;;;;;;;15.37;90.95;98080.84;4962646;28;20046;-85
2022/10/16 05:21:27;;;;;;;2.40;2.20;;;;;;;15.45;91.21;98093.72;4966800;28;20504;-86
2022/10/16 05:24:02;;;;;;;3.30;2.00;;;;;;;15.59;90.98;98110.94;4972949;28;20376;-84
2022/10/16 05:26:33;;;;;;;6.05;2.20;;;;;;;15.40;91.27;98104.16;4972144;28;20089;-85
2022/10/16 05:29:13;;;;;;;2.67;2.00;;;;;;;15.57;91.46;98131.50;4967726;28;20045;-85
2022/10/16 05:31:41;;;;;;;4.78;1.98;;;;;;;15.44;91.96;98107.97;4973586;28;20027;-84
2022/10/16 05:34:12;;;;;;;2.40;2.17;;;;;;;15.33;91.85;98100.84;4967328;28;20051;-86
2022/10/16 05:36:40;;;;;;;;;;;;;;;15.48;91.98;98140.84;4970704;28;20069;-87
2022/10/16 05:39:16;;;;;;;2.65;2.10;;;;;;;15.48;92.07;98154.06;4968815;28;19914;-94
2022/10/16 05:41:42;;;;;;;4.47;2.05;;;;;;;15.44;92.17;98134.38;4975624;28;20031;-95
2022/10/16 05:44:20;;;;;;;2.25;2.05;;;;;;;15.38;91.95;98122.09;4960800;28;20084;-96
2022/10/16 05:46:46;;;;;;;3.88;2.25;;;;;;;15.51;91.87;98153.56;4959146;28;20037;-95
2022/10/16 05:49:15;;;;;;;4.35;2.35;;;;;;;15.45;91.79;98151.84;4959550;28;20034;-95
2022/10/16 05:51:41;;;;;;;6.80;2.50;;;;;;;15.59;91.69;98163.00;4955839;28;20031;-96
2022/10/16 05:54:11;;;;;;;2.47;2.10;;;;;;;15.50;91.47;98144.84;4957768;28;20035;-93
2022/10/16 05:56:54;;;;;;;;;;;;;;;;;;;;;
2022/10/16 05:59:22;;;;;;;2.40;2.13;;;;;;;15.58;91.24;98167.47;4976091;28;20038;-95
2022/10/16 06:01:53;;;;;;;3.47;2.10;;;;;;;15.51;91.58;98156.22;4977107;28;20042;-96
2022/10/16 06:04:21;;;;;;;7.90;2.40;;;;;;;15.58;91.32;98154.25;4974738;28;20031;-94
2022/10/16 06:07:00;;;;;;;2.25;1.98;;;;;;;15.56;91.76;98166.13;4954934;28;20041;-94
2022/10/16 06:09:28;;;;;;;3.47;2.20;;;;;;;15.49;91.85;98166.22;4955576;28;20062;-96
2022/10/16 06:11:55;;;;;;;2.08;1.88;;;;;;;15.62;91.60;98183.69;4965626;28;20031;-95
2022/10/16 06:14:26;;;;;;;5.63;2.50;;;;;;;15.60;91.75;98175.19;4956621;28;20035;-94
2022/10/16 06:16:54;;;;;;;3.88;2.17;;;;;;;15.51;91.61;98156.22;4939824;29;20041;-96
2022/10/16 06:19:32;;;;;;;8.07;2.50;;;;;;;15.57;91.41;98171.16;4979670;28;20035;-94
2022/10/16 06:22:02;;;;;;;;;;;;;;;15.66;91.54;98172.47;4970148;28;20440;-94
2022/10/16 06:24:43;;;;;;;7.30;2.60;;;;;;;15.48;91.69;98161.97;4971789;28;19914;-95
2022/10/16 06:27:09;;;;;;;2.80;2.08;;;;;;;15.48;91.54;98167.25;4970656;28;20126;-91
2022/10/16 06:29:38;;;;;;;2.47;2.03;;;;;;;15.48;92.01;98188.41;4953738;29;20042;-96
2022/10/16 06:32:04;;;;;;;16.92;10.95;;;;;;;15.50;92.14;98187.13;4956718;28;20040;-95
2022/10/16 06:34:52;;;;;;;7.57;6.25;;;;;;;15.47;92.08;98171.75;4976170;28;20050;-95
2022/10/16 06:37:25;;;;;;;3.65;2.92;;;;;;;15.61;91.54;98180.25;5008375;28;20030;-95
2022/10/16 06:40:05;;;;;;;6.75;2.55;;;;;;;15.54;91.35;98161.06;4981436;28;20038;-93
2022/10/16 06:42:33;;;;;;;5.05;3.10;;;;;;;15.42;91.49;98157.59;4989620;28;20542;-91
2022/10/16 06:45:05;;;;;;;2.70;2.33;;;;;;;15.58;91.38;98167.47;4973304;28;20177;-95
2022/10/16 06:47:33;;;;;;;2.40;2.20;;;;;;;15.66;91.28;98184.88;4973117;28;20379;-93
2022/10/16 06:50:07;;;;;;;5.25;2.40;;;;;;;15.62;90.89;98179.25;4969425;28;20066;-93
2022/10/16 06:52:33;;;;;;;3.05;2.42;;;;;;;15.70;90.86;98194.75;4937799;29;20031;-96
2022/10/16 06:55:03;;;;;;;3.78;2.35;;;;;;;15.69;90.84;98201.06;4938197;29;20089;-93
2022/10/16 06:57:34;;;;;;;4.15;2.38;;;;;;;15.76;90.92;98212.34;4954307;29;20031;-94
2022/10/16 06:59:59;;;;;;;3.85;2.38;;;;;;;15.81;90.50;98219.59;4955561;28;20114;-95
2022/10/16 07:02:27;;;;;;;4.47;2.35;;;;;;;15.78;90.56;98220.88;4955844;28;20115;-95
2022/10/16 07:04:56;;;;;;;5.25;4.75;;;;;;;15.74;90.67;98205.69;4955037;28;20027;-91
2022/10/16 07:07:28;;;;;;;5.43;4.53;;;;;;;15.91;90.29;98224.31;4955421;28;20476;-96
2022/10/16 07:09:56;;;;;;;6.82;4.70;;;;;;;15.91;90.28;98242.84;4957361;28;20038;-94
2022/10/16 07:12:26;;;;;;;4.95;4.53;;;;;;;15.96;90.17;98248.25;4984017;28;20537;-93
2022/10/16 07:14:54;;;;;;;8.57;7.50;;;;;;;15.97;90.22;98252.50;4975913;28;20041;-92
2022/10/16 07:17:21;;;;;;;7.90;6.65;;;;;;;15.87;90.09;98239.84;4972488;28;20162;-91
2022/10/16 07:19:52;;;;;;;7.32;5.35;;;;;;;15.86;89.95;98229.50;4972915;28;20098;-94
2022/10/16 07:22:22;;;;;;;5.82;4.00;;;;;;;15.81;89.98;98235.47;4971548;28;20607;-95
2022/10/16 07:24:53;;;;;;;5.35;2.60;;;;;;;15.87;90.06;98260.19;4971047;28;20027;-93
2022/10/16 07:27:23;;;;;;;4.97;2.58;;;;;;;15.87;90.27;98258.34;4986966;28;20045;-93
2022/10/16 07:29:53;;;;;;;6.32;2.22;;;;;;;15.87;89.69;98260.19;4971049;28;20465;-94
2022/10/16 07:32:26;;;;;;;2.67;2.20;;;;;;;15.88;89.95;98261.78;4971013;28;20026;-93
2022/10/16 07:34:55;;;;;;;6.70;3.83;;;;;;;15.86;89.94;98251.44;4960268;28;20513;-93
2022/10/16 07:37:28;;;;;;;6.18;3.05;;;;;;;15.91;89.82;98253.41;4968061;28;20129;-96
2022/10/16 07:40:05;;;;;;;3.95;2.60;;;;;;;15.92;89.78;98253.19;4963761;28;20054;-94
2022/10/16 07:42:32;;;;;;;2.53;2.30;;;;;;;15.94;89.41;98251.09;4960352;28;20480;-93
2022/10/16 07:45:09;;;;;;;6.25;4.70;;;;;;;16.10;89.77;98275.25;4968432;28;20034;-91
2022/10/16 07:47:36;;;;;;;8.50;7.63;;;;;;;16.09;89.50;98263.06;4971334;28;20037;-92
2022/10/16 07:50:10;;;;;;;6.53;5.07;;;;;;;16.09;90.42;98255.94;4972176;28;20057;-92
2022/10/16 07:52:37;;;;;;;5.32;4.80;;;;;;;16.23;89.30;98259.94;4972083;28;20289;-92
2022/10/16 07:55:07;;;;;;;6.43;5.93;;;;;;;16.24;88.93;98250.97;4963157;28;20039;-91
2022/10/16 07:57:34;;;;;;;4.88;4.47;;;;;;;16.33;88.28;98249.59;4961063;28;20110;-93
2022/10/16 08:00:00;;;;;;;5.97;4.30;;;;;;;16.32;88.49;98253.28;4962028;28;20592;-91
2022/10/16 08:02:53;;;;;;;4.60;3.78;;;;;;;16.69;89.11;98294.53;4966010;28;20038;-94
2022/10/16 08:05:31;;;;;;;4.55;3.40;;;;;;;16.71;88.11;98282.69;4958714;28;20041;-93
2022/10/16 08:07:57;;;;;;;4.97;2.97;;;;;;;16.69;87.51;98284.75;4992224;28;20442;-93
2022/10/16 08:10:39;;;;;;;;;;;;;;;;;;;;;
2022/10/16 08:13:08;;;;;;;6.43;3.03;;;;;;;16.71;87.40;98293.28;4968320;28;20034;-94
2022/10/16 08:15:38;;;;;;;3.33;2.65;;;;;;;16.67;86.94;98291.28;4936019;29;20035;-94
2022/10/16 08:18:10;;;;;;;5.65;2.70;;;;;;;16.69;86.96;98297.97;4935608;29;20456;-94
2022/10/16 08:20:39;;;;;;;6.80;3.38;;;;;;;16.52;87.77;98286.50;4940818;28;20381;-93
2022/10/16 08:23:08;;;;;;;4.32;3.20;;;;;;;16.67;88.15;98302.69;4953080;29;20032;-93
2022/10/16 08:25:41;;;;;;;7.20;3.00;;;;;;;16.57;87.78;98297.19;4953097;28;20033;-94
2022/10/16 08:28:14;;;;;;;3.25;2.58;;;;;;;16.52;87.51;98275.91;4941083;28;20031;-93
2022/10/16 08:30:41;;;;;;;8.60;3.30;;;;;;;16.51;87.79;98283.06;4951078;28;20035;-93
2022/10/16 08:33:14;;;;;;;5.93;3.50;;;;;;;16.70;88.03;98285.53;4949260;28;20392;-94
2022/10/16 08:35:40;;;;;;;5.03;3.28;;;;;;;16.76;87.53;98274.84;4966662;28;20042;-94
2022/10/16 08:38:07;;;;;;;6.50;2.75;;;;;;;17.07;86.84;98291.31;4953604;28;20039;-94
2022/10/16 08:40:37;;;;;;;2.30;2.10;;;;;;;17.41;84.89;98294.88;4968681;28;20035;-93
2022/10/16 08:43:51;;;;;;;5.75;2.60;;;;;;;17.68;84.90;98292.41;4952016;29;20054;-91
2022/10/16 08:50:12;;;;;;;3.45;2.38;;;;;;;17.73;83.66;98286.41;4934576;29;20039;-94
2022/10/16 08:52:47;;;;;;;5.60;2.45;;;;;;;17.64;82.86;98296.59;4958144;28;20055;-92
2022/10/16 08:55:34;;;;;;;5.20;2.20;;;;;;;17.85;82.97;98303.06;4969027;28;20396;-92
2022/10/16 08:58:16;;;;;;;5.18;2.15;;;;;;;17.86;81.77;98284.22;4954464;28;20032;-93
2022/10/16 09:00:58;;;;;;;2.10;1.90;;;;;;;17.96;81.20;98296.84;4952041;29;20036;-93
2022/10/16 09:03:53;;;;;;;3.97;2.08;;;;;;;18.22;80.26;98313.97;4963626;28;20118;-93
2022/10/16 09:06:55;;;;;;;3.92;2.30;;;;;;;18.51;81.48;98305.88;4952253;28;20500;-92
2022/10/16 09:09:58;;;;;;;4.07;2.05;;;;;;;18.59;80.90;98310.75;4953257;29;20032;-93
2022/10/16 09:13:06;;;;;;;4.13;2.35;;;;;;;18.65;80.44;98318.56;4925180;29;20489;-92
2022/10/16 09:16:02;;;;;;;3.95;2.10;;;;;;;18.44;78.80;98298.06;4938419;29;20032;-93
2022/10/16 09:18:54;;;;;;;3.08;2.13;;;;;;;18.53;77.57;98319.69;4953440;29;20035;-92
2022/10/16 09:21:39;;;;;;;3.08;2.00;;;;;;;18.55;78.29;98317.63;4987655;28;20103;-93
2022/10/16 09:24:24;;;;;;;3.33;2.03;;;;;;;18.51;78.67;98311.19;4956085;28;20062;-94
2022/10/16 09:26:50;;;;;;;2.20;2.00;;;;;;;18.47;77.59;98310.84;4955011;29;20063;-94
2022/10/16 09:29:26;;;;;;;3.85;2.00;;;;;;;18.56;77.62;98330.66;4954388;28;20043;-92
2022/10/16 09:32:15;;;;;;;2.53;2.30;;;;;;;18.51;77.93;98311.19;4935685;29;20042;-93
2022/10/16 09:34:58;;;;;;;2.30;2.08;;;;;;;18.59;78.08;98351.41;4940589;28;20038;-93
2022/10/16 09:37:27;;;;;;;7.00;2.20;;;;;;;18.46;77.61;98318.03;4934996;29;20056;-93
2022/10/16 09:39:55;;;;;;;4.68;2.10;;;;;;;18.47;77.25;98329.44;4955362;28;20033;-92
2022/10/16 09:42:37;;;;;;;6.05;2.70;;;;;;;18.35;77.71;98321.59;4953832;29;20032;-91
2022/10/16 09:45:19;;;;;;;2.40;2.20;;;;;;;18.38;76.58;98323.75;4971496;28;20038;-92
2022/10/16 09:47:48;;;;;;;4.28;2.10;;;;;;;18.38;78.25;98325.63;4954295;29;20537;-93
2022/10/16 09:50:32;;;;;;;4.97;1.98;;;;;;;18.32;77.62;98339.88;4959085;28;20038;-94
2022/10/16 09:53:22;;;;;;;2.22;1.95;;;;;;;18.43;78.74;98346.94;4940025;28;20028;-93
2022/10/16 09:56:06;;;;;;;4.15;2.15;;;;;;;18.28;76.85;98334.22;4955935;28;20430;-94
2022/10/16 09:58:33;;;;;;;4.18;2.25;;;;;;;18.45;77.09;98342.97;4942649;28;20375;-93
2022/10/16 10:01:02;;;;;;;5.03;2.33;;;;;;;18.37;75.90;98338.09;4934908;28;20445;-94
2022/10/16 10:03:40;;;;;;;2.53;2.10;;;;;;;18.54;75.69;98347.88;4945306;29;20028;-95
2022/10/16 10:06:41;;;;;;;3.92;2.10;;;;;;;18.57;75.38;98336.75;4963378;28;20062;-93
2022/10/16 10:09:34;;;;;;;3.00;2.25;;;;;;;18.64;74.56;98342.69;4954951;28;20035;-94
2022/10/16 10:12:33;;;;;;;2.50;1.90;;;;;;;18.64;75.18;98326.75;4955076;28;20031;-96
2022/10/16 10:15:21;;;;;;;3.92;2.50;;;;;;;18.73;74.67;98332.50;4954650;28;20126;-95
2022/10/16 10:17:55;;;;;;;5.28;2.38;;;;;;;18.74;74.07;98318.16;4963447;28;20035;-92
2022/10/16 10:20:45;;;;;;;5.80;2.35;;;;;;;18.85;74.71;98333.19;4969625;28;20042;-92
2022/10/16 10:23:26;;;;;;;4.63;2.22;;;;;;;19.08;74.60;98364.03;4954698;28;20031;-91
2022/10/16 10:26:35;;;;;;;6.35;2.25;;;;;;;19.05;74.74;98332.59;4954048;28;20506;-91
2022/10/16 10:29:31;;;;;;;;;;;;;;;;;;;;;
2022/10/16 10:32:12;;;;;;;4.47;2.20;;;;;;;19.35;74.43;98354.22;4954158;28;20425;-92
2022/10/16 10:35:10;;;;;;;3.17;2.30;;;;;;;19.23;73.34;98343.72;4953765;29;20065;-91
2022/10/16 10:38:03;;;;;;;2.42;2.20;;;;;;;19.18;73.03;98364.13;4950401;29;20420;-93
2022/10/16 10:41:22;;;;;;;;;;;;;;;;;;;;;
2022/10/16 10:44:38;;;;;;;4.68;2.13;;;;;;;19.15;73.52;98359.31;4952981;28;20114;-92
2022/10/16 10:47:22;;;;;;;2.35;2.10;;;;;;;19.16;74.40;98358.25;4981776;28;20035;-93
2022/10/16 10:50:16;;;;;;;;;;;;;;;;;;;;;
2022/10/16 10:53:10;;;;;;;9.45;2.30;;;;;;;19.44;75.30;98357.25;4968044;28;20031;-92
2022/10/16 10:56:02;;;;;;;2.67;2.13;;;;;;;19.56;73.65;98351.78;4951218;28;20031;-91
2022/10/16 10:59:22;;;;;;;2.40;2.20;;;;;;;19.80;72.79;98355.75;4939320;29;20038;-93
2022/10/16 11:02:51;;;;;;;3.03;2.35;;;;;;;19.91;72.59;98359.28;4950240;28;20067;-96
2022/10/16 11:05:44;;;;;;;2.83;2.00;;;;;;;19.87;71.35;98334.25;4947500;28;20055;-93
2022/10/16 11:08:39;;;;;;;3.17;1.98;;;;;;;19.88;70.81;98352.63;4947039;29;20433;-93
2022/10/16 11:11:20;;;;;;;4.28;2.10;;;;;;;20.18;72.17;98372.56;4950256;28;20035;-94
2022/10/16 11:14:14;;;;;;;4.90;2.47;;;;;;;20.08;70.45;98367.97;4949869;29;20028;-94
2022/10/16 11:16:59;;;;;;;4.80;2.40;;;;;;;19.92;71.60;98348.41;4977936;28;20047;-93
2022/10/16 11:19:55;;;;;;;7.00;2.33;;;;;;;19.84;72.44;98350.72;4953291;28;20038;-92
2022/10/16 11:23:26;;;;;;;4.15;2.25;;;;;;;19.77;72.80;98351.72;4945334;29;20079;-93
2022/10/16 11:26:01;;;;;;;5.45;2.40;;;;;;;19.71;72.26;98352.75;4946344;29;20031;-92
2022/10/16 11:28:49;;;;;;;;;;;;;;;19.78;73.08;98368.50;4940623;29;20118;-95
2022/10/16 11:31:38;;;;;;;8.35;2.45;;;;;;;19.72;72.54;98372.97;4981026;28;19966;-93
2022/10/16 11:34:22;;;;;;;5.40;2.40;;;;;;;19.66;72.49;98354.53;4966920;28;20046;-93
2022/10/16 11:37:03;;;;;;;3.95;2.25;;;;;;;19.81;73.45;98370.66;4934293;29;20039;-93
2022/10/16 11:40:02;;;;;;;;;;;;;;;;;;;;;
2022/10/16 11:43:14;;;;;;;;;;;;;;;;;;;;;
2022/10/16 11:46:21;;;;;;;3.45;2.45;;;;;;;20.37;71.10;98376.44;4943722;29;20094;-93
2022/10/16 11:49:18;;;;;;;2.75;2.33;;;;;;;20.55;70.47;98357.41;4935513;29;20086;-95
2022/10/16 11:52:10;;;;;;;6.93;2.42;;;;;;;20.97;71.13;98377.88;4949303;29;20055;-93
2022/10/16 11:54:59;;;;;;;3.97;2.40;;;;;;;21.29;69.60;98356.44;4934456;29;20031;-95
2022/10/16 11:57:44;;;;;;;;;;;;;;;;;;;;;
2022/10/16 12:00:45;;;;;;;;;;;;;;;;;;;;;
2022/10/16 12:03:33;;;;;;;;;;;;;;;21.79;66.31;98375.47;4954520;29;20480;-94
2022/10/16 12:06:55;;;;;;;5.82;2.03;;;;;;;21.97;66.16;98372.28;4986565;28;19935;-93
2022/10/16 12:09:45;;;;;;;2.72;2.10;;;;;;;21.92;65.06;98372.28;4941534;29;20035;-93
2022/10/16 12:12:39;;;;;;;4.88;2.22;;;;;;;21.81;63.18;98357.31;4968850;28;20798;-95
2022/10/16 12:15:43;;;;;;;;;;;;;;;;;;;;;
2022/10/16 12:18:28;;;;;;;2.80;2.22;;;;;;;21.70;65.49;98377.06;4941674;29;20400;-94
2022/10/16 12:21:09;;;;;;;;;;;;;;;;;;;;;
2022/10/16 12:24:08;;;;;;;;;;;;;;;;;;;;;
2022/10/16 12:26:47;;;;;;;4.18;2.20;;;;;;;21.69;65.67;98375.44;4938924;28;20492;-95
2022/10/16 12:29:44;;;;;;;3.53;2.03;;;;;;;21.88;65.37;98384.56;4935656;29;20035;-93
2022/10/16 12:36:15;;;;;;;;;;;;;;;;;;;;;
2022/10/16 12:39:30;;;;;;;;;;;;;;;;;;;;;
2022/10/16 12:42:51;;;;;;;;;;;;;;;;;;;;;
2022/10/16 12:45:46;;;;;;;;;;;;;;;;;;;;;
2022/10/16 12:48:36;;;;;;;3.10;1.98;;;;;;;21.60;64.83;98359.19;4987296;28;20097;-96
2022/10/16 12:51:30;;;;;;;3.67;2.25;;;;;;;21.79;68.20;98367.47;4960499;28;20377;-92
2022/10/16 12:54:34;;;;;;;3.63;2.05;;;;;;;21.93;66.89;98371.22;4975153;28;20039;-93
2022/10/16 12:58:00;;;;;;;;;;;;;;;;;;;;;
2022/10/16 13:01:09;;;;;;;3.47;2.05;;;;;;;21.84;64.86;98360.25;4947196;29;20066;-96
2022/10/16 13:04:31;;;;;;;3.63;2.30;;;;;;;21.82;64.14;98358.91;4911243;29;20079;-96
2022/10/16 13:07:24;;;;;;;7.03;2.50;;;;;;;21.85;66.74;98358.41;4902284;28;20044;-91
2022/10/16 13:10:45;;;;;;;3.00;2.30;;;;;;;21.86;64.00;98370.66;4937400;29;20079;-93
2022/10/16 13:14:00;;;;;;;3.55;2.30;;;;;;;21.76;66.81;98373.31;4923381;29;20186;-95
2022/10/16 13:16:45;;;;;;;4.78;2.30;;;;;;;21.80;64.76;98371.75;4953925;28;20028;-93
2022/10/16 13:19:46;;;;;;;4.05;2.30;;;;;;;22.06;69.12;98364.53;4939198;29;20031;-93
2022/10/16 13:23:14;;;;;;;3.72;2.35;;;;;;;22.03;64.69;98367.75;4938977;29;20036;-95
2022/10/16 13:26:01;;;;;;;3.65;2.20;;;;;;;22.41;70.34;98369.09;4935031;29;20406;-93
2022/10/16 13:28:49;;;;;;;3.25;1.90;;;;;;;22.47;66.49;98353.84;4957535;28;20400;-93
2022/10/16 13:31:25;;;;;;;3.92;2.20;;;;;;;22.89;66.01;98380.22;4956171;28;20509;-93
2022/10/16 13:34:03;;;;;;;2.08;1.88;;;;;;;23.05;65.12;98360.38;4933150;29;20142;-92
2022/10/16 13:36:55;;;;;;;;;;;;;;;;;;;;;
2022/10/16 13:39:55;;;;;;;;;;;;;;;;;;;;;